sensor_id;sensor_type;location;lat;lon;timestamp;temperature;humidity
16402;DHT22;8310;44.626;11.176;2023-10-19T00:00:01;13.70;58.20
16402;DHT22;8310;44.626;11.176;2023-10-19T00:02:48;13.70;58.30
16402;DHT22;8310;44.626;11.176;2023-10-19T00:05:17;13.80;58.30
16402;DHT22;8310;44.626;11.176;2023-10-19T00:07:43;13.80;58.30
16402;DHT22;8310;44.626;11.176;2023-10-19T00:10:11;13.80;58.20
16402;DHT22;8310;44.626;11.176;2023-10-19T00:12:41;13.80;58.20
16402;DHT22;8310;44.626;11.176;2023-10-19T00:15:10;13.80;58.30
16402;DHT22;8310;44.626;11.176;2023-10-19T00:17:38;13.80;58.30
16402;DHT22;8310;44.626;11.176;2023-10-19T00:20:13;13.80;58.30
16402;DHT22;8310;44.626;11.176;2023-10-19T00:23:01;13.80;58.30
16402;DHT22;8310;44.626;11.176;2023-10-19T00:25:31;13.70;58.20
16402;DHT22;8310;44.626;11.176;2023-10-19T00:27:58;13.70;58.20
16402;DHT22;8310;44.626;11.176;2023-10-19T00:30:26;13.70;58.30
16402;DHT22;8310;44.626;11.176;2023-10-19T00:32:56;13.70;58.40
16402;DHT22;8310;44.626;11.176;2023-10-19T00:35:30;13.80;58.40
16402;DHT22;8310;44.626;11.176;2023-10-19T00:38:01;13.80;58.40
16402;DHT22;8310;44.626;11.176;2023-10-19T00:40:42;13.80;58.40
16402;DHT22;8310;44.626;11.176;2023-10-19T00:43:12;13.80;58.40
16402;DHT22;8310;44.626;11.176;2023-10-19T00:45:43;13.80;58.50
16402;DHT22;8310;44.626;11.176;2023-10-19T00:48:12;13.80;58.50
16402;DHT22;8310;44.626;11.176;2023-10-19T00:50:41;13.80;58.50
16402;DHT22;8310;44.626;11.176;2023-10-19T00:53:12;13.80;58.50
16402;DHT22;8310;44.626;11.176;2023-10-19T00:55:41;13.80;58.40
16402;DHT22;8310;44.626;11.176;2023-10-19T00:58:08;13.70;58.40
16402;DHT22;8310;44.626;11.176;2023-10-19T01:00:38;13.70;58.50
16402;DHT22;8310;44.626;11.176;2023-10-19T01:03:11;13.70;58.50
16402;DHT22;8310;44.626;11.176;2023-10-19T01:05:44;13.60;58.50
16402;DHT22;8310;44.626;11.176;2023-10-19T01:08:16;13.60;58.50
16402;DHT22;8310;44.626;11.176;2023-10-19T01:10:51;13.60;58.50
16402;DHT22;8310;44.626;11.176;2023-10-19T01:13:19;13.60;59.10
16402;DHT22;8310;44.626;11.176;2023-10-19T01:15:53;13.60;58.50
16402;DHT22;8310;44.626;11.176;2023-10-19T01:18:21;13.60;58.50
16402;DHT22;8310;44.626;11.176;2023-10-19T01:20:56;13.60;58.50
16402;DHT22;8310;44.626;11.176;2023-10-19T01:23:24;13.70;58.60
16402;DHT22;8310;44.626;11.176;2023-10-19T01:25:56;13.70;58.60
16402;DHT22;8310;44.626;11.176;2023-10-19T01:28:33;13.70;58.60
16402;DHT22;8310;44.626;11.176;2023-10-19T01:31:14;13.70;58.60
16402;DHT22;8310;44.626;11.176;2023-10-19T01:33:43;13.70;58.60
16402;DHT22;8310;44.626;11.176;2023-10-19T01:36:11;13.70;58.60
16402;DHT22;8310;44.626;11.176;2023-10-19T01:38:41;13.70;58.60
16402;DHT22;8310;44.626;11.176;2023-10-19T01:41:08;13.70;58.60
16402;DHT22;8310;44.626;11.176;2023-10-19T01:43:41;13.70;58.40
16402;DHT22;8310;44.626;11.176;2023-10-19T01:46:08;13.70;58.50
16402;DHT22;8310;44.626;11.176;2023-10-19T01:48:38;13.60;58.40
16402;DHT22;8310;44.626;11.176;2023-10-19T01:51:07;13.60;58.60
16402;DHT22;8310;44.626;11.176;2023-10-19T01:53:38;13.60;58.60
16402;DHT22;8310;44.626;11.176;2023-10-19T01:56:07;13.60;58.60
16402;DHT22;8310;44.626;11.176;2023-10-19T01:58:36;13.60;58.50
16402;DHT22;8310;44.626;11.176;2023-10-19T02:01:04;13.50;58.50
16402;DHT22;8310;44.626;11.176;2023-10-19T02:03:35;13.60;58.60
16402;DHT22;8310;44.626;11.176;2023-10-19T02:06:01;13.60;58.70
16402;DHT22;8310;44.626;11.176;2023-10-19T02:08:36;13.60;58.60
16402;DHT22;8310;44.626;11.176;2023-10-19T02:11:04;13.60;58.50
16402;DHT22;8310;44.626;11.176;2023-10-19T02:13:40;13.60;58.50
16402;DHT22;8310;44.626;11.176;2023-10-19T02:16:06;13.50;58.50
16402;DHT22;8310;44.626;11.176;2023-10-19T02:18:35;13.50;58.50
16402;DHT22;8310;44.626;11.176;2023-10-19T02:21:01;13.50;58.60
16402;DHT22;8310;44.626;11.176;2023-10-19T02:23:32;13.50;58.60
16402;DHT22;8310;44.626;11.176;2023-10-19T02:26:00;13.50;58.60
16402;DHT22;8310;44.626;11.176;2023-10-19T02:28:29;13.50;58.60
16402;DHT22;8310;44.626;11.176;2023-10-19T02:30:59;13.50;58.70
16402;DHT22;8310;44.626;11.176;2023-10-19T02:33:37;13.60;58.70
16402;DHT22;8310;44.626;11.176;2023-10-19T02:36:05;13.60;58.70
16402;DHT22;8310;44.626;11.176;2023-10-19T02:38:39;13.60;58.70
16402;DHT22;8310;44.626;11.176;2023-10-19T02:41:06;13.50;58.60
16402;DHT22;8310;44.626;11.176;2023-10-19T02:43:36;13.50;58.60
16402;DHT22;8310;44.626;11.176;2023-10-19T02:46:03;13.50;58.70
16402;DHT22;8310;44.626;11.176;2023-10-19T02:48:31;13.50;58.70
16402;DHT22;8310;44.626;11.176;2023-10-19T02:50:57;13.50;58.80
16402;DHT22;8310;44.626;11.176;2023-10-19T02:53:32;13.50;58.80
16402;DHT22;8310;44.626;11.176;2023-10-19T02:56:09;13.50;58.80
16402;DHT22;8310;44.626;11.176;2023-10-19T02:58:42;13.40;58.70
16402;DHT22;8310;44.626;11.176;2023-10-19T03:01:16;13.40;58.70
16402;DHT22;8310;44.626;11.176;2023-10-19T03:03:48;13.40;58.70
16402;DHT22;8310;44.626;11.176;2023-10-19T03:06:18;13.30;58.70
16402;DHT22;8310;44.626;11.176;2023-10-19T03:08:48;13.30;58.80
16402;DHT22;8310;44.626;11.176;2023-10-19T03:11:24;13.40;58.90
16402;DHT22;8310;44.626;11.176;2023-10-19T03:13:50;13.40;59.00
16402;DHT22;8310;44.626;11.176;2023-10-19T03:16:20;13.40;59.00
16402;DHT22;8310;44.626;11.176;2023-10-19T03:18:47;13.50;59.10
16402;DHT22;8310;44.626;11.176;2023-10-19T03:21:15;13.50;59.00
16402;DHT22;8310;44.626;11.176;2023-10-19T03:23:42;13.60;59.10
16402;DHT22;8310;44.626;11.176;2023-10-19T03:26:10;13.60;59.00
16402;DHT22;8310;44.626;11.176;2023-10-19T03:28:56;13.60;59.00
16402;DHT22;8310;44.626;11.176;2023-10-19T03:31:30;13.60;59.10
16402;DHT22;8310;44.626;11.176;2023-10-19T03:33:58;13.60;59.00
16402;DHT22;8310;44.626;11.176;2023-10-19T03:36:30;13.60;59.00
16402;DHT22;8310;44.626;11.176;2023-10-19T03:38:58;13.60;59.60
16402;DHT22;8310;44.626;11.176;2023-10-19T03:41:37;13.60;59.10
16402;DHT22;8310;44.626;11.176;2023-10-19T03:44:07;13.60;59.10
16402;DHT22;8310;44.626;11.176;2023-10-19T03:46:40;13.60;59.00
16402;DHT22;8310;44.626;11.176;2023-10-19T03:49:19;13.60;59.10
16402;DHT22;8310;44.626;11.176;2023-10-19T03:51:46;13.60;59.10
16402;DHT22;8310;44.626;11.176;2023-10-19T03:54:28;13.60;59.20
16402;DHT22;8310;44.626;11.176;2023-10-19T03:56:58;13.60;59.10
16402;DHT22;8310;44.626;11.176;2023-10-19T03:59:29;13.60;59.20
16402;DHT22;8310;44.626;11.176;2023-10-19T04:02:01;13.70;59.20
16402;DHT22;8310;44.626;11.176;2023-10-19T04:04:35;13.70;59.20
16402;DHT22;8310;44.626;11.176;2023-10-19T04:07:04;13.70;59.20
16402;DHT22;8310;44.626;11.176;2023-10-19T04:09:37;13.70;59.20
16402;DHT22;8310;44.626;11.176;2023-10-19T04:12:22;13.70;59.20
16402;DHT22;8310;44.626;11.176;2023-10-19T04:14:49;13.70;59.20
16402;DHT22;8310;44.626;11.176;2023-10-19T04:17:18;13.70;59.20
16402;DHT22;8310;44.626;11.176;2023-10-19T04:19:46;13.80;59.30
16402;DHT22;8310;44.626;11.176;2023-10-19T04:22:14;13.80;59.30
16402;DHT22;8310;44.626;11.176;2023-10-19T04:24:49;13.80;59.30
16402;DHT22;8310;44.626;11.176;2023-10-19T04:27:16;13.80;59.90
16402;DHT22;8310;44.626;11.176;2023-10-19T04:29:48;13.70;59.20
16402;DHT22;8310;44.626;11.176;2023-10-19T04:32:15;13.70;59.20
16402;DHT22;8310;44.626;11.176;2023-10-19T04:34:52;13.70;59.20
16402;DHT22;8310;44.626;11.176;2023-10-19T04:37:19;13.70;59.20
16402;DHT22;8310;44.626;11.176;2023-10-19T04:39:49;13.70;59.30
16402;DHT22;8310;44.626;11.176;2023-10-19T04:42:17;13.70;59.40
16402;DHT22;8310;44.626;11.176;2023-10-19T04:44:45;13.70;59.30
16402;DHT22;8310;44.626;11.176;2023-10-19T04:47:12;13.70;59.30
16402;DHT22;8310;44.626;11.176;2023-10-19T04:49:40;13.70;59.40
16402;DHT22;8310;44.626;11.176;2023-10-19T04:52:09;13.80;59.40
16402;DHT22;8310;44.626;11.176;2023-10-19T04:54:37;13.80;59.40
16402;DHT22;8310;44.626;11.176;2023-10-19T04:57:05;13.80;59.40
16402;DHT22;8310;44.626;11.176;2023-10-19T04:59:32;13.80;59.40
16402;DHT22;8310;44.626;11.176;2023-10-19T05:02:00;13.80;59.40
16402;DHT22;8310;44.626;11.176;2023-10-19T05:04:28;13.70;59.40
16402;DHT22;8310;44.626;11.176;2023-10-19T05:06:57;13.70;59.40
16402;DHT22;8310;44.626;11.176;2023-10-19T05:09:26;13.70;59.40
16402;DHT22;8310;44.626;11.176;2023-10-19T05:11:53;13.70;59.40
16402;DHT22;8310;44.626;11.176;2023-10-19T05:14:20;13.70;59.40
16402;DHT22;8310;44.626;11.176;2023-10-19T05:16:48;13.70;59.40
16402;DHT22;8310;44.626;11.176;2023-10-19T05:19:16;13.70;59.40
16402;DHT22;8310;44.626;11.176;2023-10-19T05:21:43;13.70;59.50
16402;DHT22;8310;44.626;11.176;2023-10-19T05:24:10;13.70;59.50
16402;DHT22;8310;44.626;11.176;2023-10-19T05:26:40;13.70;59.50
16402;DHT22;8310;44.626;11.176;2023-10-19T05:29:07;13.70;59.50
16402;DHT22;8310;44.626;11.176;2023-10-19T05:31:35;13.70;59.50
16402;DHT22;8310;44.626;11.176;2023-10-19T05:34:03;13.80;59.50
16402;DHT22;8310;44.626;11.176;2023-10-19T05:36:30;13.70;59.50
16402;DHT22;8310;44.626;11.176;2023-10-19T05:38:58;13.80;59.60
16402;DHT22;8310;44.626;11.176;2023-10-19T05:41:25;13.70;59.50
16402;DHT22;8310;44.626;11.176;2023-10-19T05:43:54;13.80;59.60
16402;DHT22;8310;44.626;11.176;2023-10-19T05:46:22;13.80;59.60
16402;DHT22;8310;44.626;11.176;2023-10-19T05:48:50;13.80;59.60
16402;DHT22;8310;44.626;11.176;2023-10-19T05:51:19;13.80;59.60
16402;DHT22;8310;44.626;11.176;2023-10-19T05:53:48;13.80;59.60
16402;DHT22;8310;44.626;11.176;2023-10-19T05:56:17;13.80;59.60
16402;DHT22;8310;44.626;11.176;2023-10-19T05:58:46;13.80;59.70
16402;DHT22;8310;44.626;11.176;2023-10-19T06:01:18;13.80;59.70
16402;DHT22;8310;44.626;11.176;2023-10-19T06:03:45;13.80;59.70
16402;DHT22;8310;44.626;11.176;2023-10-19T06:06:13;13.80;59.60
16402;DHT22;8310;44.626;11.176;2023-10-19T06:08:40;13.80;59.60
16402;DHT22;8310;44.626;11.176;2023-10-19T06:11:08;13.80;59.70
16402;DHT22;8310;44.626;11.176;2023-10-19T06:13:36;13.80;59.70
16402;DHT22;8310;44.626;11.176;2023-10-19T06:16:04;13.80;59.70
16402;DHT22;8310;44.626;11.176;2023-10-19T06:18:34;13.70;59.60
16402;DHT22;8310;44.626;11.176;2023-10-19T06:21:02;13.70;59.70
16402;DHT22;8310;44.626;11.176;2023-10-19T06:23:30;13.70;59.70
16402;DHT22;8310;44.626;11.176;2023-10-19T06:25:58;13.80;59.80
16402;DHT22;8310;44.626;11.176;2023-10-19T06:28:30;13.80;59.80
16402;DHT22;8310;44.626;11.176;2023-10-19T06:31:04;13.80;59.80
16402;DHT22;8310;44.626;11.176;2023-10-19T06:33:34;13.80;59.80
16402;DHT22;8310;44.626;11.176;2023-10-19T06:36:02;13.70;59.80
16402;DHT22;8310;44.626;11.176;2023-10-19T06:38:30;13.70;59.90
16402;DHT22;8310;44.626;11.176;2023-10-19T06:40:59;13.70;60.70
16402;DHT22;8310;44.626;11.176;2023-10-19T06:43:28;13.70;59.90
16402;DHT22;8310;44.626;11.176;2023-10-19T06:45:56;13.70;59.90
16402;DHT22;8310;44.626;11.176;2023-10-19T06:48:24;13.70;59.90
16402;DHT22;8310;44.626;11.176;2023-10-19T06:50:53;13.70;59.90
16402;DHT22;8310;44.626;11.176;2023-10-19T06:53:20;13.70;59.90
16402;DHT22;8310;44.626;11.176;2023-10-19T06:55:49;13.70;59.90
16402;DHT22;8310;44.626;11.176;2023-10-19T06:58:16;13.70;59.90
16402;DHT22;8310;44.626;11.176;2023-10-19T07:00:45;13.70;60.00
16402;DHT22;8310;44.626;11.176;2023-10-19T07:03:21;13.70;60.00
16402;DHT22;8310;44.626;11.176;2023-10-19T07:05:53;13.80;60.20
16402;DHT22;8310;44.626;11.176;2023-10-19T07:08:20;13.80;60.10
16402;DHT22;8310;44.626;11.176;2023-10-19T07:10:48;13.80;60.10
16402;DHT22;8310;44.626;11.176;2023-10-19T07:13:16;13.80;60.10
16402;DHT22;8310;44.626;11.176;2023-10-19T07:15:46;13.80;60.10
16402;DHT22;8310;44.626;11.176;2023-10-19T07:18:14;13.80;60.20
16402;DHT22;8310;44.626;11.176;2023-10-19T07:20:42;13.80;60.20
16402;DHT22;8310;44.626;11.176;2023-10-19T07:23:15;13.80;60.20
16402;DHT22;8310;44.626;11.176;2023-10-19T07:25:45;13.80;60.30
16402;DHT22;8310;44.626;11.176;2023-10-19T07:28:14;13.80;60.30
16402;DHT22;8310;44.626;11.176;2023-10-19T07:30:42;13.80;60.20
16402;DHT22;8310;44.626;11.176;2023-10-19T07:33:10;13.80;60.30
16402;DHT22;8310;44.626;11.176;2023-10-19T07:35:43;13.90;60.40
16402;DHT22;8310;44.626;11.176;2023-10-19T07:38:14;13.90;60.40
16402;DHT22;8310;44.626;11.176;2023-10-19T07:40:43;13.90;60.40
16402;DHT22;8310;44.626;11.176;2023-10-19T07:43:10;13.90;60.40
16402;DHT22;8310;44.626;11.176;2023-10-19T07:45:38;13.90;60.40
16402;DHT22;8310;44.626;11.176;2023-10-19T07:48:06;13.90;60.50
16402;DHT22;8310;44.626;11.176;2023-10-19T07:50:37;13.90;60.60
16402;DHT22;8310;44.626;11.176;2023-10-19T07:53:06;14.00;60.70
16402;DHT22;8310;44.626;11.176;2023-10-19T07:55:36;14.00;60.70
16402;DHT22;8310;44.626;11.176;2023-10-19T07:58:04;14.10;60.80
16402;DHT22;8310;44.626;11.176;2023-10-19T08:00:32;14.20;61.60
16402;DHT22;8310;44.626;11.176;2023-10-19T08:03:01;14.20;60.90
16402;DHT22;8310;44.626;11.176;2023-10-19T08:05:29;14.20;60.90
16402;DHT22;8310;44.626;11.176;2023-10-19T08:07:57;14.30;60.90
16402;DHT22;8310;44.626;11.176;2023-10-19T08:10:26;14.30;60.90
16402;DHT22;8310;44.626;11.176;2023-10-19T08:12:55;14.30;60.90
16402;DHT22;8310;44.626;11.176;2023-10-19T08:15:24;14.30;60.70
16402;DHT22;8310;44.626;11.176;2023-10-19T08:17:52;14.30;60.70
16402;DHT22;8310;44.626;11.176;2023-10-19T08:20:20;14.30;60.80
16402;DHT22;8310;44.626;11.176;2023-10-19T08:22:50;14.30;60.80
16402;DHT22;8310;44.626;11.176;2023-10-19T08:25:18;14.30;60.80
16402;DHT22;8310;44.626;11.176;2023-10-19T08:27:46;14.30;60.90
16402;DHT22;8310;44.626;11.176;2023-10-19T08:30:17;14.30;60.90
16402;DHT22;8310;44.626;11.176;2023-10-19T08:32:46;14.30;60.90
16402;DHT22;8310;44.626;11.176;2023-10-19T08:35:15;14.30;60.90
16402;DHT22;8310;44.626;11.176;2023-10-19T08:37:43;14.30;60.90
16402;DHT22;8310;44.626;11.176;2023-10-19T08:40:12;14.30;60.90
16402;DHT22;8310;44.626;11.176;2023-10-19T08:42:41;14.30;60.90
16402;DHT22;8310;44.626;11.176;2023-10-19T08:45:09;14.30;60.80
16402;DHT22;8310;44.626;11.176;2023-10-19T08:47:42;14.40;60.90
16402;DHT22;8310;44.626;11.176;2023-10-19T08:50:13;14.30;60.80
16402;DHT22;8310;44.626;11.176;2023-10-19T08:52:42;14.30;60.90
16402;DHT22;8310;44.626;11.176;2023-10-19T08:55:10;14.40;60.90
16402;DHT22;8310;44.626;11.176;2023-10-19T08:57:39;14.40;61.00
16402;DHT22;8310;44.626;11.176;2023-10-19T09:00:08;14.40;60.90
16402;DHT22;8310;44.626;11.176;2023-10-19T09:02:35;14.40;61.00
16402;DHT22;8310;44.626;11.176;2023-10-19T09:05:07;14.40;61.40
16402;DHT22;8310;44.626;11.176;2023-10-19T09:07:45;14.40;61.00
16402;DHT22;8310;44.626;11.176;2023-10-19T09:10:16;14.40;61.10
16402;DHT22;8310;44.626;11.176;2023-10-19T09:12:43;14.40;61.00
16402;DHT22;8310;44.626;11.176;2023-10-19T09:15:21;14.40;61.00
16402;DHT22;8310;44.626;11.176;2023-10-19T09:17:49;14.40;61.10
16402;DHT22;8310;44.626;11.176;2023-10-19T09:20:22;14.40;61.10
16402;DHT22;8310;44.626;11.176;2023-10-19T09:22:54;14.40;61.10
16402;DHT22;8310;44.626;11.176;2023-10-19T09:25:23;14.40;61.10
16402;DHT22;8310;44.626;11.176;2023-10-19T09:27:51;14.40;61.10
16402;DHT22;8310;44.626;11.176;2023-10-19T09:30:20;14.40;61.10
16402;DHT22;8310;44.626;11.176;2023-10-19T09:32:49;14.40;61.20
16402;DHT22;8310;44.626;11.176;2023-10-19T09:35:19;14.50;61.30
16402;DHT22;8310;44.626;11.176;2023-10-19T09:37:48;14.50;61.30
16402;DHT22;8310;44.626;11.176;2023-10-19T09:40:15;14.50;61.30
16402;DHT22;8310;44.626;11.176;2023-10-19T09:42:43;14.50;61.20
16402;DHT22;8310;44.626;11.176;2023-10-19T09:45:18;14.50;61.30
16402;DHT22;8310;44.626;11.176;2023-10-19T09:47:49;14.50;61.20
16402;DHT22;8310;44.626;11.176;2023-10-19T09:50:17;14.50;61.20
16402;DHT22;8310;44.626;11.176;2023-10-19T09:52:48;14.50;61.20
16402;DHT22;8310;44.626;11.176;2023-10-19T09:55:22;14.50;61.20
16402;DHT22;8310;44.626;11.176;2023-10-19T09:57:55;14.40;61.00
16402;DHT22;8310;44.626;11.176;2023-10-19T10:00:23;14.40;61.10
16402;DHT22;8310;44.626;11.176;2023-10-19T10:02:51;14.30;61.00
16402;DHT22;8310;44.626;11.176;2023-10-19T10:05:45;14.40;61.20
16402;DHT22;8310;44.626;11.176;2023-10-19T10:08:31;14.40;61.40
16402;DHT22;8310;44.626;11.176;2023-10-19T10:11:16;14.50;61.50
16402;DHT22;8310;44.626;11.176;2023-10-19T10:13:44;14.50;61.50
16402;DHT22;8310;44.626;11.176;2023-10-19T10:16:15;14.60;61.80
16402;DHT22;8310;44.626;11.176;2023-10-19T10:18:47;14.70;62.10
16402;DHT22;8310;44.626;11.176;2023-10-19T10:21:18;14.80;62.20
16402;DHT22;8310;44.626;11.176;2023-10-19T10:23:49;14.90;62.20
16402;DHT22;8310;44.626;11.176;2023-10-19T10:26:18;14.90;62.00
16402;DHT22;8310;44.626;11.176;2023-10-19T10:28:46;14.90;62.00
16402;DHT22;8310;44.626;11.176;2023-10-19T10:31:20;14.90;61.90
16402;DHT22;8310;44.626;11.176;2023-10-19T10:33:50;14.90;61.80
16402;DHT22;8310;44.626;11.176;2023-10-19T10:36:26;14.90;61.90
16402;DHT22;8310;44.626;11.176;2023-10-19T10:39:02;15.00;62.60
16402;DHT22;8310;44.626;11.176;2023-10-19T10:41:31;15.00;61.70
16402;DHT22;8310;44.626;11.176;2023-10-19T10:43:59;15.00;61.70
16402;DHT22;8310;44.626;11.176;2023-10-19T10:46:27;14.90;61.70
16402;DHT22;8310;44.626;11.176;2023-10-19T10:48:55;14.90;61.60
16402;DHT22;8310;44.626;11.176;2023-10-19T10:51:24;14.90;61.70
16402;DHT22;8310;44.626;11.176;2023-10-19T10:53:52;14.90;61.70
16402;DHT22;8310;44.626;11.176;2023-10-19T10:56:23;14.90;61.70
16402;DHT22;8310;44.626;11.176;2023-10-19T10:58:51;14.90;62.10
16402;DHT22;8310;44.626;11.176;2023-10-19T11:01:29;14.90;61.70
16402;DHT22;8310;44.626;11.176;2023-10-19T11:04:06;14.90;61.80
16402;DHT22;8310;44.626;11.176;2023-10-19T11:06:47;14.90;61.80
16402;DHT22;8310;44.626;11.176;2023-10-19T11:09:14;14.90;61.90
16402;DHT22;8310;44.626;11.176;2023-10-19T11:11:46;14.90;61.90
16402;DHT22;8310;44.626;11.176;2023-10-19T11:14:14;14.90;61.80
16402;DHT22;8310;44.626;11.176;2023-10-19T11:16:42;14.90;61.80
16402;DHT22;8310;44.626;11.176;2023-10-19T11:19:10;14.90;61.70
16402;DHT22;8310;44.626;11.176;2023-10-19T11:21:37;14.90;61.70
16402;DHT22;8310;44.626;11.176;2023-10-19T11:24:05;15.00;61.90
16402;DHT22;8310;44.626;11.176;2023-10-19T11:26:39;14.90;61.70
16402;DHT22;8310;44.626;11.176;2023-10-19T11:29:09;14.90;61.70
16402;DHT22;8310;44.626;11.176;2023-10-19T11:31:37;14.90;61.70
16402;DHT22;8310;44.626;11.176;2023-10-19T11:34:06;14.90;61.80
16402;DHT22;8310;44.626;11.176;2023-10-19T11:36:34;14.90;61.80
16402;DHT22;8310;44.626;11.176;2023-10-19T11:39:01;14.90;61.80
16402;DHT22;8310;44.626;11.176;2023-10-19T11:41:30;14.90;61.70
16402;DHT22;8310;44.626;11.176;2023-10-19T11:43:57;14.90;61.70
16402;DHT22;8310;44.626;11.176;2023-10-19T11:46:25;14.90;61.70
16402;DHT22;8310;44.626;11.176;2023-10-19T11:48:53;14.90;61.70
16402;DHT22;8310;44.626;11.176;2023-10-19T11:51:21;14.90;61.70
16402;DHT22;8310;44.626;11.176;2023-10-19T11:53:48;14.90;61.70
16402;DHT22;8310;44.626;11.176;2023-10-19T11:56:17;14.90;61.80
16402;DHT22;8310;44.626;11.176;2023-10-19T11:58:46;14.90;61.70
16402;DHT22;8310;44.626;11.176;2023-10-19T12:01:14;14.90;61.80
16402;DHT22;8310;44.626;11.176;2023-10-19T12:03:43;14.90;61.70
16402;DHT22;8310;44.626;11.176;2023-10-19T12:06:12;14.90;61.70
16402;DHT22;8310;44.626;11.176;2023-10-19T12:08:44;14.90;61.70
16402;DHT22;8310;44.626;11.176;2023-10-19T12:11:11;14.90;61.80
16402;DHT22;8310;44.626;11.176;2023-10-19T12:13:42;14.90;61.80
16402;DHT22;8310;44.626;11.176;2023-10-19T12:16:10;14.90;61.90
16402;DHT22;8310;44.626;11.176;2023-10-19T12:18:39;14.90;61.90
16402;DHT22;8310;44.626;11.176;2023-10-19T12:21:09;14.90;62.00
16402;DHT22;8310;44.626;11.176;2023-10-19T12:23:39;14.90;62.00
16402;DHT22;8310;44.626;11.176;2023-10-19T12:26:06;14.90;62.00
16402;DHT22;8310;44.626;11.176;2023-10-19T12:28:36;15.00;62.10
16402;DHT22;8310;44.626;11.176;2023-10-19T12:31:05;15.00;62.10
16402;DHT22;8310;44.626;11.176;2023-10-19T12:33:34;15.10;62.20
16402;DHT22;8310;44.626;11.176;2023-10-19T12:36:02;15.10;62.10
16402;DHT22;8310;44.626;11.176;2023-10-19T12:38:49;15.10;62.20
16402;DHT22;8310;44.626;11.176;2023-10-19T12:41:18;15.20;63.10
16402;DHT22;8310;44.626;11.176;2023-10-19T12:43:45;15.20;62.20
16402;DHT22;8310;44.626;11.176;2023-10-19T12:46:14;15.30;62.30
16402;DHT22;8310;44.626;11.176;2023-10-19T12:48:42;15.30;62.30
16402;DHT22;8310;44.626;11.176;2023-10-19T12:51:09;15.30;62.30
16402;DHT22;8310;44.626;11.176;2023-10-19T12:53:37;15.40;62.30
16402;DHT22;8310;44.626;11.176;2023-10-19T12:56:07;15.40;62.30
16402;DHT22;8310;44.626;11.176;2023-10-19T12:58:37;15.40;62.30
16402;DHT22;8310;44.626;11.176;2023-10-19T13:01:05;15.40;62.30
16402;DHT22;8310;44.626;11.176;2023-10-19T13:03:33;15.40;62.30
16402;DHT22;8310;44.626;11.176;2023-10-19T13:06:02;15.40;62.10
16402;DHT22;8310;44.626;11.176;2023-10-19T13:08:33;15.40;62.10
16402;DHT22;8310;44.626;11.176;2023-10-19T13:11:00;15.40;62.10
16402;DHT22;8310;44.626;11.176;2023-10-19T13:13:29;15.40;62.20
16402;DHT22;8310;44.626;11.176;2023-10-19T13:15:57;15.40;62.20
16402;DHT22;8310;44.626;11.176;2023-10-19T13:18:25;15.40;62.20
16402;DHT22;8310;44.626;11.176;2023-10-19T13:20:53;15.40;62.20
16402;DHT22;8310;44.626;11.176;2023-10-19T13:23:22;15.40;62.20
16402;DHT22;8310;44.626;11.176;2023-10-19T13:25:50;15.40;62.20
16402;DHT22;8310;44.626;11.176;2023-10-19T13:28:19;15.40;62.20
16402;DHT22;8310;44.626;11.176;2023-10-19T13:30:51;15.40;62.20
16402;DHT22;8310;44.626;11.176;2023-10-19T13:33:20;15.40;62.10
16402;DHT22;8310;44.626;11.176;2023-10-19T13:35:47;15.40;62.20
16402;DHT22;8310;44.626;11.176;2023-10-19T13:38:16;15.40;62.20
16402;DHT22;8310;44.626;11.176;2023-10-19T13:40:45;15.40;62.20
16402;DHT22;8310;44.626;11.176;2023-10-19T13:43:14;15.40;62.20
16402;DHT22;8310;44.626;11.176;2023-10-19T13:45:44;15.50;62.30
16402;DHT22;8310;44.626;11.176;2023-10-19T13:48:13;15.50;62.20
16402;DHT22;8310;44.626;11.176;2023-10-19T13:50:44;15.50;62.20
16402;DHT22;8310;44.626;11.176;2023-10-19T13:53:11;15.40;62.30
16402;DHT22;8310;44.626;11.176;2023-10-19T13:55:39;15.40;62.10
16402;DHT22;8310;44.626;11.176;2023-10-19T13:58:06;15.40;62.00
16402;DHT22;8310;44.626;11.176;2023-10-19T14:00:35;15.40;62.10
16402;DHT22;8310;44.626;11.176;2023-10-19T14:03:06;15.40;62.10
16402;DHT22;8310;44.626;11.176;2023-10-19T14:05:40;15.30;62.10
16402;DHT22;8310;44.626;11.176;2023-10-19T14:08:09;15.40;62.20
16402;DHT22;8310;44.626;11.176;2023-10-19T14:10:36;15.30;62.20
16402;DHT22;8310;44.626;11.176;2023-10-19T14:13:07;15.30;62.30
16402;DHT22;8310;44.626;11.176;2023-10-19T14:15:35;15.40;62.30
16402;DHT22;8310;44.626;11.176;2023-10-19T14:18:04;15.40;62.40
16402;DHT22;8310;44.626;11.176;2023-10-19T14:20:32;15.40;62.40
16402;DHT22;8310;44.626;11.176;2023-10-19T14:23:02;15.40;62.50
16402;DHT22;8310;44.626;11.176;2023-10-19T14:25:31;15.40;62.40
16402;DHT22;8310;44.626;11.176;2023-10-19T14:27:58;15.40;62.40
16402;DHT22;8310;44.626;11.176;2023-10-19T14:30:27;15.40;62.40
16402;DHT22;8310;44.626;11.176;2023-10-19T14:32:55;15.40;62.40
16402;DHT22;8310;44.626;11.176;2023-10-19T14:35:24;15.40;62.40
16402;DHT22;8310;44.626;11.176;2023-10-19T14:37:53;15.40;62.50
16402;DHT22;8310;44.626;11.176;2023-10-19T14:40:24;15.40;62.60
16402;DHT22;8310;44.626;11.176;2023-10-19T14:42:52;15.50;62.80
16402;DHT22;8310;44.626;11.176;2023-10-19T14:45:21;15.50;62.70
16402;DHT22;8310;44.626;11.176;2023-10-19T14:47:52;15.60;62.70
16402;DHT22;8310;44.626;11.176;2023-10-19T14:50:20;15.60;62.70
16402;DHT22;8310;44.626;11.176;2023-10-19T14:52:49;15.60;62.70
16402;DHT22;8310;44.626;11.176;2023-10-19T14:55:17;15.60;62.70
16402;DHT22;8310;44.626;11.176;2023-10-19T14:57:48;15.70;62.80
16402;DHT22;8310;44.626;11.176;2023-10-19T15:00:17;15.70;62.70
16402;DHT22;8310;44.626;11.176;2023-10-19T15:02:52;15.70;62.70
16402;DHT22;8310;44.626;11.176;2023-10-19T15:05:22;15.70;62.70
16402;DHT22;8310;44.626;11.176;2023-10-19T15:07:51;15.70;62.70
16402;DHT22;8310;44.626;11.176;2023-10-19T15:10:20;15.70;62.70
16402;DHT22;8310;44.626;11.176;2023-10-19T15:12:50;15.80;62.70
16402;DHT22;8310;44.626;11.176;2023-10-19T15:15:17;15.70;62.50
16402;DHT22;8310;44.626;11.176;2023-10-19T15:17:46;15.70;62.50
16402;DHT22;8310;44.626;11.176;2023-10-19T15:20:15;15.70;62.50
16402;DHT22;8310;44.626;11.176;2023-10-19T15:22:43;15.70;62.50
16402;DHT22;8310;44.626;11.176;2023-10-19T15:25:12;15.60;62.50
16402;DHT22;8310;44.626;11.176;2023-10-19T15:27:39;15.60;63.30
16402;DHT22;8310;44.626;11.176;2023-10-19T15:30:11;15.60;62.50
16402;DHT22;8310;44.626;11.176;2023-10-19T15:32:39;15.60;62.50
16402;DHT22;8310;44.626;11.176;2023-10-19T15:35:09;15.60;62.50
16402;DHT22;8310;44.626;11.176;2023-10-19T15:37:37;15.60;62.50
16402;DHT22;8310;44.626;11.176;2023-10-19T15:40:06;15.60;62.50
16402;DHT22;8310;44.626;11.176;2023-10-19T15:42:34;15.60;62.60
16402;DHT22;8310;44.626;11.176;2023-10-19T15:45:02;15.60;62.60